createdAt,value
2022-09-12T00:01:53.385Z,24.1
2022-09-12T00:07:55.037Z,21.8
2022-09-12T00:14:07.372Z,20.8
2022-09-12T00:20:06.780Z,21.5
2022-09-12T00:26:12.751Z,20.2
2022-09-12T00:32:55.008Z,20.9
2022-09-12T00:44:50.467Z,20.9
2022-09-12T00:50:53.044Z,25.9
2022-09-12T00:56:54.167Z,21.5
2022-09-12T01:02:56.276Z,22.2
2022-09-12T01:28:21.617Z,22
2022-09-12T01:34:39.774Z,25.7
2022-09-12T01:40:53.510Z,21.6
2022-09-12T01:47:01.390Z,23.6
2022-09-12T01:53:16.512Z,24
2022-09-12T02:06:14.171Z,24.6
2022-09-12T02:12:49.727Z,25.9
2022-09-12T02:18:53.846Z,22.6
2022-09-12T02:25:10.500Z,23.3
2022-09-12T02:38:30.356Z,23.3
2022-09-12T02:44:19.743Z,24.4
2022-09-12T02:50:12.385Z,24.7
2022-09-12T02:56:03.734Z,25.5
2022-09-12T03:01:54.342Z,24.5
2022-09-12T03:07:45.246Z,24
2022-09-12T03:13:36.275Z,24.6
2022-09-12T03:19:25.303Z,22.5
2022-09-12T03:25:16.006Z,23.9
2022-09-12T03:31:07.083Z,22.5
2022-09-12T03:36:57.318Z,22.8
2022-09-12T03:42:48.246Z,23.5
2022-09-12T03:48:39.425Z,24.6
2022-09-12T03:54:30.503Z,22.9
2022-09-12T04:00:25.781Z,23.3
2022-09-12T04:06:16.143Z,23.7
2022-09-12T04:12:07.127Z,23.4
2022-09-12T04:18:00.451Z,27.6
2022-09-12T04:23:53.423Z,32.6
2022-09-12T04:29:44.073Z,28.7
2022-09-12T04:35:34.766Z,27.1
2022-09-12T04:41:26.165Z,32.2
2022-09-12T04:47:18.041Z,31.7
2022-09-12T04:53:08.742Z,29.9
2022-09-12T04:58:58.656Z,36
2022-09-12T05:04:50.038Z,36.3
2022-09-12T05:10:41.037Z,34.3
2022-09-12T05:16:33.389Z,33.1
2022-09-12T05:22:23.986Z,33.8
2022-09-12T05:28:15.039Z,32.3
2022-09-12T05:34:06.111Z,31.3
2022-09-12T05:39:57.715Z,30
2022-09-12T05:45:48.716Z,28.9
2022-09-12T05:51:40.533Z,27.9
2022-09-12T05:57:31.883Z,29.6
2022-09-12T06:03:22.477Z,26.9
2022-09-12T06:09:13.764Z,28.4
2022-09-12T06:15:04.635Z,29.6
2022-09-12T06:20:58.627Z,29.6
2022-09-12T06:26:49.579Z,30.1
2022-09-12T06:32:41.550Z,28.5
2022-09-12T06:38:32.194Z,28.8
2022-09-12T06:44:22.851Z,28.8
2022-09-12T06:50:13.822Z,28.7
2022-09-12T06:56:04.754Z,27.6
2022-09-12T07:01:57.055Z,29
2022-09-12T07:07:48.376Z,29.1
2022-09-12T07:13:38.542Z,26.5
2022-09-12T07:19:28.860Z,27
2022-09-12T07:25:21.133Z,24.1
2022-09-12T07:31:11.492Z,22.3
2022-09-12T07:37:02.560Z,22.1
2022-09-12T07:42:53.967Z,21.1
2022-09-12T07:48:46.143Z,20.4
2022-09-12T07:54:37.438Z,19.2
2022-09-12T08:00:27.915Z,19
2022-09-12T08:06:19.403Z,18.9
2022-09-12T08:12:10.630Z,18.5
2022-09-12T08:18:01.511Z,17
2022-09-12T08:23:52.665Z,16.6
2022-09-12T08:29:43.764Z,17.4
2022-09-12T08:35:42.155Z,16.7
2022-09-12T08:41:33.970Z,17.3
2022-09-12T08:47:34.058Z,15.8
2022-09-12T08:53:24.957Z,14.7
2022-09-12T08:59:24.077Z,13.7
2022-09-12T09:05:21.785Z,13.6
2022-09-12T09:11:14.833Z,12.6
2022-09-12T09:17:12.200Z,12.5
2022-09-12T09:23:07.921Z,12.2
2022-09-12T09:29:17.894Z,11.8
2022-09-12T09:35:38.107Z,12.2
2022-09-12T09:48:15.898Z,11.8
2022-09-12T10:00:57.912Z,10.6
2022-09-12T10:13:56.327Z,9.6
2022-09-12T10:26:18.184Z,9.1
2022-09-12T10:32:42.253Z,8.6
2022-09-12T10:38:43.333Z,8.6
2022-09-12T10:44:43.969Z,8.6
2022-09-12T10:50:57.550Z,8.1
2022-09-12T10:57:16.734Z,7.9
2022-09-12T11:03:28.508Z,8.1
2022-09-12T11:09:57.317Z,7.7
2022-09-12T11:16:23.567Z,6.8
2022-09-12T11:23:10.878Z,6.5
2022-09-12T11:29:56.548Z,6.4
2022-09-12T11:49:02.949Z,6.1
2022-09-12T12:26:15.059Z,5.6
2022-09-12T12:32:37.531Z,5.6
2022-09-12T12:45:18.596Z,5.6
2022-09-12T12:51:47.236Z,5.4
2022-09-12T12:58:09.459Z,5.4
2022-09-12T13:04:22.706Z,5.4
2022-09-12T13:10:32.315Z,5.2
2022-09-12T13:16:23.339Z,5.9
2022-09-12T13:22:22.238Z,5
2022-09-12T13:34:46.691Z,5.6
2022-09-12T13:40:46.827Z,5.1
2022-09-12T13:46:42.671Z,5.3
2022-09-12T13:52:57.073Z,5.3
2022-09-12T13:59:15.469Z,4.8
2022-09-12T14:05:23.697Z,5.1
2022-09-12T14:11:19.605Z,4.5
2022-09-12T14:17:40.122Z,4.3
2022-09-12T14:24:02.024Z,4.6
2022-09-12T14:36:05.424Z,3.5
2022-09-12T14:41:56.706Z,3.7
2022-09-12T14:47:48.723Z,3.7
2022-09-12T14:53:39.181Z,3.3
2022-09-12T14:59:29.002Z,3
2022-09-12T15:05:19.374Z,2.8
2022-09-12T15:11:10.987Z,2.3
2022-09-12T15:17:00.710Z,2.4
2022-09-12T15:22:54.248Z,2.1
2022-09-12T15:28:44.259Z,2.3
2022-09-12T15:34:35.755Z,2.3
2022-09-12T15:40:26.872Z,2.3
2022-09-12T15:46:17.054Z,2.2
2022-09-12T15:52:07.348Z,2.2
2022-09-12T15:57:57.705Z,2.1
2022-09-12T16:03:49.114Z,2
2022-09-12T16:09:44.829Z,1.9
2022-09-12T16:15:35.374Z,1.8
2022-09-12T16:21:25.765Z,1.8
2022-09-12T16:27:16.887Z,1.9
2022-09-12T16:33:06.662Z,1.8
2022-09-12T16:38:56.696Z,1.9
2022-09-12T16:44:48.585Z,1.9
2022-09-12T16:50:59.469Z,1.9
2022-09-12T16:56:48.867Z,2
2022-09-12T17:02:40.098Z,2
2022-09-12T17:08:31.729Z,2.1
2022-09-12T17:14:22.547Z,2.2
2022-09-12T17:20:15.460Z,2.2
2022-09-12T17:26:05.357Z,2.4
2022-09-12T17:32:00.058Z,2.2
2022-09-12T17:37:52.177Z,2.4
2022-09-12T17:43:43.493Z,2.3
2022-09-12T17:49:36.536Z,2.6
2022-09-12T17:55:28.221Z,2.4
2022-09-12T18:01:21.943Z,3
2022-09-12T18:07:12.912Z,2.8
2022-09-12T18:13:04.368Z,2.6
2022-09-12T18:18:53.985Z,2.6
2022-09-12T18:24:44.874Z,2.5
2022-09-12T18:30:36.597Z,2.6
2022-09-12T18:36:29.029Z,2.6
2022-09-12T18:42:17.662Z,5
2022-09-12T18:48:13.048Z,3.1
2022-09-12T18:54:32.356Z,2.9
2022-09-12T19:00:23.014Z,2.7
2022-09-12T19:06:17.627Z,2.8
2022-09-12T19:12:40.837Z,3
2022-09-12T19:18:42.853Z,3.2
2022-09-12T19:32:20.901Z,3.2
2022-09-12T19:38:18.088Z,3.5
2022-09-12T19:58:28.681Z,3.9
2022-09-12T20:18:34.602Z,3.8
2022-09-12T20:24:41.891Z,3.3
2022-09-12T20:56:54.255Z,3.6
2022-09-12T21:02:49.647Z,3.9
2022-09-12T21:08:53.092Z,3.9
2022-09-12T21:15:07.019Z,4.2
2022-09-12T21:20:55.909Z,4.2
2022-09-12T21:33:53.809Z,4.3
2022-09-12T21:46:16.354Z,4.9
2022-09-12T21:59:08.309Z,4.7
2022-09-12T22:05:35.195Z,4.5
2022-09-12T22:38:20.056Z,5.2
2022-09-12T22:44:17.702Z,5
2022-09-12T22:50:31.863Z,4.7
2022-09-12T22:56:31.309Z,5.4
2022-09-12T23:02:32.545Z,5.6
2022-09-12T23:08:22.539Z,5.3
2022-09-12T23:14:14.068Z,5.3
2022-09-12T23:20:06.130Z,5.4
2022-09-12T23:25:57.519Z,5.4
2022-09-12T23:31:49.784Z,5.4
2022-09-12T23:37:41.386Z,6.1
2022-09-12T23:43:33.506Z,5.7
2022-09-12T23:49:28.415Z,5.6
2022-09-12T23:55:19.535Z,5.5
